Station: Gove Airport  

  Atmospheric Gas Attenuation - ITU Rec 676-11   ----------------- dB/100km -----------------
Date Time Temp RH % AH g/m3 Dew Point Wind Direction Speed kph Gust kph Barometer mB Rainfall Since 9am 24GHz 47GHz 76GHz 122GHz 134GHz 241GHz
06/09 17:50 25.9 72 17.43 20.5 13 20 1013.8 0 37.5 36.7 69.1 182.8 198.7 690.1
06/09 17:40 26.3 69 17.08 20.2 15 20 1013.8 0 36.8 36.0 67.2 177.7 192.6 668.9
06/09 17:30 26.4 69 17.18 20.3 15 19 1013.7 0 37.0 36.1 67.6 178.6 193.8 673.0
06/09 17:20 26.8 67 17.05 20.2 13 22 1013.7 0 36.7 35.7 66.6 176.2 190.9 663.0
06/09 17:10 27 67 17.24 20.3 15 20 1013.6 0 37.0 35.9 67.3 177.9 193.1 670.7
06/09 17:00 27.2 66 17.18 20.3 17 22 1013.6 0 36.9 35.7 66.9 176.7 191.7 666.0
06/09 16:50 27.6 64 17.03 20.2 17 24 1013.5 0 36.5 35.3 65.9 174.1 188.6 655.1
06/09 16:40 27.5 62 16.4 19.6 17 20 1013.4 0 35.2 34.3 63.2 167.1 180.0 625.0
06/09 16:30 27.9 59 15.96 19.1 15 22 1013.2 0 34.3 33.3 61.0 161.3 172.9 600.6
06/09 16:20 27.9 58 15.69 18.9 17 24 1013.1 0 33.7 32.9 59.9 158.3 169.2 587.8
06/09 16:10 28.3 60 16.59 19.8 17 24 1013 0 35.6 34.2 63.4 167.5 180.7 627.6
06/09 16:00 28.4 56 15.57 18.8 15 24 1013 0 33.4 32.5 59.0 155.9 166.5 578.3
06/09 15:50 28.4 58 16.12 19.3 17 24 1013 0 34.6 33.4 61.3 162.0 174.0 604.3
06/09 15:40 28.5 58 16.21 19.4 15 20 1013 0 34.7 33.5 61.6 162.8 175.0 607.8
06/09 15:30 28.6 57 16.02 19.2 15 24 1013 0 34.3 33.2 60.7 160.5 172.2 598.0
06/09 15:20 29.1 55 15.89 19.1 17 24 1013 0 34.0 32.8 59.8 158.0 169.3 588.1
06/09 15:10 29.5 55 16.24 19.5 15 20 1013 0 34.7 33.2 60.9 161.1 173.1 601.5
06/09 15:00 29.2 53 15.39 18.6 15 22 1013 0 33.0 31.9 57.7 152.4 162.4 564.1
06/09 14:50 29 50 14.36 17.5 17 24 1013.2 0 30.8 30.3 53.8 141.9 149.4 518.7
06/09 14:40 29.2 51 14.81 18 17 22 1013.4 0 31.8 31.0 55.4 146.3 154.9 537.8
06/09 14:30 29.3 51 14.89 18.1 15 24 1013.5 0 31.9 31.1 55.7 147.0 155.7 540.8
06/09 14:20 29 51 14.65 17.8 17 24 1013.7 0 31.4 30.8 54.9 145.0 153.2 532.0
06/09 14:10 29.5 51 15.05 18.3 15 20 1013.8 0 32.2 31.3 56.2 148.3 157.4 546.8
06/09 14:00 29.8 51 15.3 18.6 13 20 1013.8 0 32.7 31.6 56.9 150.4 160.1 556.1
06/09 13:50 29.6 51 15.14 18.4 13 19 1014 0 32.4 31.4 56.5 149.1 158.4 550.3
06/09 13:40 29.5 50 14.76 18 15 24 1014.1 0 31.6 30.8 55.0 145.3 153.7 533.7
06/09 13:30 29.8 49 14.7 17.9 15 22 1014.2 0 31.5 30.6 54.6 144.1 152.4 529.1
06/09 13:20 29.6 47 13.95 17.1 15 24 1014.4 0 29.9 29.5 51.8 136.7 143.2 497.0
06/09 13:10 29.6 48 14.25 17.4 15 22 1014.5 0 30.6 30.0 53.0 139.8 147.0 510.4
06/09 13:00 29.5 51 15.05 18.3 13 19 1014.6 0 32.2 31.3 56.2 148.4 157.5 547.1
06/09 12:50 29.3 50 14.6 17.8 17 24 1014.8 0 31.3 30.7 54.6 144.1 152.1 528.1
06/09 12:40 29.5 48 14.17 17.3 17 24 1014.9 0 30.4 29.9 52.8 139.2 146.2 507.6
06/09 12:30 29.4 45 13.21 16.2 17 30 1015.1 0 28.4 28.5 49.2 129.6 134.4 466.1
06/09 12:20 29.2 48 13.94 17.1 13 24 1015.3 0 29.9 29.7 52.1 137.4 143.9 499.4
06/09 12:10 29 51 14.65 17.8 15 22 1015.5 0 31.4 30.9 55.0 145.2 153.4 532.7
06/09 12:00 29.1 51 14.73 17.9 15 20 1015.8 0 31.6 31.0 55.3 145.9 154.3 535.8
06/09 11:50 29.1 50 14.44 17.6 17 24 1016 0 31.0 30.5 54.1 142.9 150.6 522.7
06/09 11:40 29.7 50 14.92 18.2 15 22 1016.2 0 31.9 31.1 55.6 146.9 155.6 540.4
06/09 11:30 29.2 52 15.1 18.3 15 26 1016.3 0 32.3 31.6 56.7 149.7 159.0 552.2
06/09 11:20 29.4 53 15.56 18.8 15 20 1016.5 0 33.3 32.2 58.4 154.3 164.7 572.0
06/09 11:10 29.2 53 15.39 18.6 15 20 1016.7 0 32.9 32.0 57.9 152.9 162.9 565.7
06/09 11:00 29 54 15.51 18.7 13 22 1016.8 0 33.2 32.3 58.5 154.6 164.9 572.7
06/09 10:50 29 52 14.94 18.1 15 20 1017 0 32.0 31.4 56.2 148.5 157.4 546.5
06/09 10:40 28.9 53 15.14 18.4 15 20 1017.1 0 32.5 31.8 57.1 150.8 160.2 556.4
06/09 10:30 29.1 53 15.31 18.5 13 19 1017.2 0 32.8 32.0 57.7 152.3 162.1 562.9
06/09 10:20 28.9 54 15.43 18.7 15 20 1017.3 0 33.1 32.2 58.3 154.0 164.1 569.9
06/09 10:10 28.6 54 15.18 18.4 17 24 1017.4 0 32.6 32.0 57.5 151.9 161.4 560.5
06/09 10:00 28.4 54 15.01 18.2 13 20 1017.4 0 32.2 31.7 57.0 150.4 159.6 554.1
06/09 09:50 28.4 56 15.57 18.8 13 20 1017.5 0 33.4 32.7 59.3 156.5 167.1 580.2
06/09 09:40 27.9 58 15.69 18.9 15 22 1017.5 0 33.7 33.1 60.2 158.9 169.8 589.6
06/09 09:30 27.7 60 16.05 19.2 15 22 1017.5 0 34.4 33.7 61.8 163.3 175.2 608.4
06/09 09:20 27.7 60 16.05 19.2 15 20 1017.5 0 34.4 33.7 61.8 163.3 175.2 608.4
06/09 09:10 27.3 61 15.96 19.1 15 22 1017.5 0 34.3 33.7 61.8 163.1 174.8 607.2
06/09 09:00 27.4 60 15.79 18.9 15 22 1017.5 0 33.9 33.4 61.0 161.0 172.3 598.2
06/09 08:50 27.5 65 17.2 20.3 9 15 1017.4 0 36.9 35.8 66.9 176.8 191.8 666.1
06/09 08:40 26.9 67 17.15 20.3 11 17 1017.4 0 36.8 36.0 67.2 177.6 192.6 668.8
06/09 08:30 26.5 68 17.02 20.1 9 15 1017.2 0 36.6 35.9 67.0 177.0 191.7 665.7
06/09 08:20 26 71 17.29 20.3 7 11 1017.1 0 37.2 36.6 68.6 181.3 196.8 683.7
06/09 08:10 25.2 77 17.93 20.9 7 9 1017.1 0 38.6 38.1 72.2 191.0 208.5 724.0
06/09 08:00 24.6 79 17.78 20.7 2 9 1017 0 38.4 38.1 72.1 190.6 207.9 721.8
06/09 07:50 23.9 84 18.17 21 0 0 1016.9 0 39.3 39.1 74.6 197.3 215.8 749.3
06/09 07:40 22.8 89 18.08 20.9 0 0 1016.8 0 39.2 39.5 75.3 199.0 217.6 755.3
06/09 07:30 21.6 94 17.83 20.6 0 0 1016.6 0 38.8 39.6 75.2 198.9 217.1 753.6
06/09 07:20 20.4 96 16.98 19.7 0 0 1016.5 0 37.1 38.5 72.3 191.1 207.2 718.8
06/09 07:10 20.4 97 17.16 19.9 0 0 1016.4 0 37.5 38.8 73.2 193.4 210.0 728.6
06/09 07:00 19.4 97 16.18 18.9 0 0 1016.2 0 35.5 37.4 69.4 183.4 197.3 684.4
06/09 06:50 18.4 96 15.1 17.8 0 0 1016.1 0 33.2 35.8 65.2 172.1 183.2 635.0
06/09 06:40 18.1 96 14.83 17.5 0 0 1016.1 0 32.7 35.4 64.2 169.4 179.8 623.1
06/09 06:30 18.1 97 14.99 17.6 0 0 1015.9 0 33.0 35.7 64.9 171.4 182.2 631.6
06/09 06:20 17.8 96 14.57 17.2 0 0 1015.7 0 32.1 35.0 63.2 166.8 176.5 611.6
06/09 06:10 17.7 96 14.48 17.1 0 0 1015.6 0 32.0 34.9 62.9 165.9 175.3 607.6
06/09 06:00 17.8 96 14.57 17.2 0 0 1015.5 0 32.1 35.0 63.2 166.8 176.5 611.5
06/09 05:50 17.8 96 14.57 17.2 0 0 1015.3 0 32.1 35.0 63.2 166.8 176.4 611.4
06/09 05:40 17.7 96 14.48 17.1 0 0 1015.1 0 32.0 34.9 62.8 165.9 175.3 607.4
06/09 05:30 18 96 14.74 17.4 0 0 1015 0 32.5 35.2 63.8 168.4 178.5 618.7
06/09 05:20 18.1 96 14.83 17.5 0 0 1014.9 0 32.7 35.3 64.1 169.3 179.6 622.6
06/09 05:10 18.2 96 14.92 17.6 0 0 1014.8 0 32.9 35.5 64.4 170.2 180.7 626.5
06/09 05:00 18.4 96 15.1 17.8 0 0 1014.7 0 33.2 35.7 65.1 171.9 183.0 634.4
06/09 04:50 18.5 96 15.19 17.8 0 0 1014.6 0 33.4 35.8 65.4 172.8 184.1 638.3
06/09 04:40 18.5 96 15.19 17.8 0 0 1014.4 0 33.4 35.8 65.4 172.8 184.1 638.2
06/09 04:30 18.7 96 15.37 18 0 0 1014.3 0 33.8 36.1 66.1 174.6 186.3 646.1
06/09 04:20 18.3 95 14.85 17.5 0 0 1014.2 0 32.7 35.3 64.0 169.0 179.4 621.7
06/09 04:10 18.5 96 15.19 17.8 0 0 1014.1 0 33.4 35.8 65.4 172.7 184.0 638.1
06/09 04:00 19.1 96 15.74 18.4 0 0 1014.1 0 34.6 36.6 67.5 178.2 191.0 662.4
06/09 03:50 19.3 96 15.92 18.6 0 0 1014.2 0 34.9 36.8 68.1 180.0 193.3 670.3
06/09 03:40 19.1 96 15.74 18.4 0 0 1014.2 0 34.6 36.6 67.5 178.2 191.0 662.4
06/09 03:30 19.8 97 16.57 19.3 0 0 1014.1 0 36.3 37.9 70.8 187.0 202.0 700.9
06/09 03:20 19.5 96 16.11 18.8 0 0 1014 0 35.3 37.1 68.9 181.9 195.7 678.7
06/09 03:10 19.4 96 16.02 18.7 0 0 1014.3 0 35.1 37.0 68.5 181.1 194.6 674.9
06/09 03:00 19.1 96 15.74 18.4 0 0 1014.4 0 34.5 36.6 67.5 178.3 191.0 662.5
06/09 02:50 19.2 96 15.83 18.5 0 0 1014.5 0 34.7 36.7 67.8 179.2 192.2 666.5
06/09 02:40 19.4 96 16.02 18.7 0 0 1014.5 0 35.1 37.0 68.5 181.1 194.6 675.0
06/09 02:30 19.5 96 16.11 18.8 0 0 1014.6 0 35.3 37.1 68.9 182.0 195.7 679.0
06/09 02:20 19.3 96 15.92 18.6 0 0 1014.7 0 34.9 36.9 68.2 180.1 193.3 670.6
06/09 02:10 19.2 95 15.66 18.4 0 0 1014.8 0 34.4 36.4 67.0 177.1 189.6 657.5
06/09 02:00 19.2 95 15.66 18.4 0 0 1014.8 0 34.4 36.4 67.0 177.1 189.6 657.5
06/09 01:50 19.3 95 15.76 18.5 0 0 1014.9 0 34.6 36.6 67.4 178.1 190.9 662.0
06/09 01:40 19.5 95 15.94 18.7 0 0 1015 0 34.9 36.8 68.1 179.9 193.2 670.0
06/09 01:30 19.7 95 16.13 18.9 0 0 1015.1 0 35.3 37.1 68.8 181.9 195.6 678.5
06/09 01:20 19.9 95 16.32 19.1 0 0 1015.2 0 35.7 37.4 69.6 183.8 198.0 687.0

Last Refresh: 06-Sep-2026 17:59:58

Bureau of Meteorology